Time;durP1;ratioP1;P1;durP2;ratioP2;P2;SDS_P1;SDS_P2;PMS_P1;PMS_P2;Temp;Humidity;BMP_temperature;BMP_pressure;BME280_temperature;BME280_humidity;BME280_pressure;Samples;Min_cycle;Max_cycle;Signal;HPM_P1;HPM_P2
2022/01/09 00:10:40;;;;;;;41.48;20.10;;;;;;;7.61;45.92;99253.89;1961396;97;25742;-84
2022/01/09 00:14:36;;;;;;;34.18;18.45;;;;;;;7.58;45.89;99246.50;1836367;103;25948;-85
2022/01/09 00:18:28;;;;;;;30.02;18.35;;;;;;;7.56;45.90;99243.02;1836241;104;25900;-86
2022/01/09 00:22:39;;;;;;;33.35;19.20;;;;;;;7.55;45.88;99242.55;1885056;100;25940;-87
2022/01/09 00:26:40;;;;;;;31.25;18.35;;;;;;;7.54;45.87;99239.52;1885239;104;25783;-87
2022/01/09 00:30:16;;;;;;;34.25;19.50;;;;;;;7.54;45.87;99242.54;1851846;105;25903;-86
2022/01/09 00:34:22;;;;;;;33.38;20.32;;;;;;;7.53;45.87;99235.19;1819815;107;26266;-85
2022/01/09 00:38:25;;;;;;;;;;;;;;;;;;;;;
2022/01/09 00:46:12;;;;;;;39.27;19.32;;;;;;;7.51;45.87;99226.49;1820690;105;26276;-85
2022/01/09 00:49:47;;;;;;;32.13;18.52;;;;;;;7.52;45.88;99224.34;1844936;102;25816;-86
2022/01/09 00:53:42;;;;;;;36.65;20.57;;;;;;;7.51;45.86;99220.01;1884285;102;25830;-86
2022/01/09 00:57:17;;;;;;;35.35;19.82;;;;;;;7.52;45.87;99211.80;1880247;102;26024;-84
2022/01/09 01:01:36;;;;;;;34.73;19.32;;;;;;;7.50;45.88;99201.84;1906419;101;26244;-83
2022/01/09 01:04:57;;;;;;;30.17;18.05;;;;;;;7.52;45.84;99210.51;1893901;102;26063;-84
2022/01/09 01:08:32;;;;;;;;;;;;;;;;;;;;;
2022/01/09 01:11:56;;;;;;;36.38;19.42;;;;;;;7.52;45.83;99198.84;1895625;102;25874;-86
2022/01/09 01:23:39;;;;;;;37.08;19.67;;;;;;;7.51;45.82;99181.11;1784019;105;25824;-86
2022/01/09 01:27:18;;;;;;;31.52;18.10;;;;;;;7.51;45.84;99175.92;1789979;108;26077;-85
2022/01/09 01:30:47;;;;;;;39.53;19.25;;;;;;;7.51;45.82;99172.03;1859528;101;25976;-84
2022/01/09 01:34:33;;;;;;;;;;;;;;;;;;;;;
2022/01/09 01:38:38;;;;;;;;;;;;;;;;;;;;;
2022/01/09 01:50:19;;;;;;;37.48;20.02;;;;;;;7.50;45.80;99159.93;1772562;109;26213;-85
2022/01/09 01:54:02;;;;;;;36.50;19.92;;;;;;;7.48;45.77;99147.35;1749667;110;25788;-87
2022/01/09 01:57:48;;;;;;;;;;;;;;;;;;;;;
2022/01/09 02:01:54;;;;;;;;;;;;;;;;;;;;;
2022/01/09 02:05:57;;;;;;;31.02;18.65;;;;;;;7.48;45.77;99140.00;1752781;110;26021;-87
2022/01/09 02:09:48;;;;;;;36.83;19.90;;;;;;;7.46;45.75;99139.98;1747186;111;25850;-87
2022/01/09 02:13:32;;;;;;;36.17;18.85;;;;;;;7.46;45.73;99136.09;1750107;110;26252;-87
2022/01/09 02:17:22;;;;;;;35.68;19.27;;;;;;;7.46;45.76;99133.91;1746727;111;25797;-87
2022/01/09 02:21:17;;;;;;;;;;;;;;;;;;;;;
2022/01/09 02:24:57;;;;;;;;;;;;;;;;;;;;;
2022/01/09 02:28:40;;;;;;;34.23;18.57;;;;;;;7.44;45.75;99118.34;1967611;99;25502;-85
2022/01/09 02:32:48;;;;;;;36.73;20.05;;;;;;;7.45;45.73;99107.53;1973412;98;25840;-86
2022/01/09 02:36:21;;;;;;;38.73;18.82;;;;;;;7.44;45.75;99100.19;1934879;100;25892;-85
2022/01/09 02:40:14;;;;;;;;;;;;;;;;;;;;;
2022/01/09 02:43:41;;;;;;;45.73;21.77;;;;;;;7.43;45.73;99101.05;1991552;95;25793;-86
2022/01/09 02:47:17;;;;;;;37.10;19.40;;;;;;;7.42;45.74;99102.30;2057748;93;25966;-86
2022/01/09 03:02:22;;;;;;;37.63;19.37;;;;;;;7.41;45.74;99083.28;2024530;95;26440;-85
2022/01/09 03:10:53;;;;;;;37.73;19.37;;;;;;;7.41;45.72;99078.09;2043751;95;25902;-86
2022/01/09 03:15:03;;;;;;;41.92;20.60;;;;;;;7.41;45.73;99078.52;2116459;91;25725;-84
2022/01/09 03:18:35;;;;;;;37.60;19.50;;;;;;;7.41;45.72;99067.72;2047848;93;25812;-85
2022/01/09 03:30:00;;;;;;;39.48;20.88;;;;;;;7.39;45.78;99068.55;1875512;102;26461;-85
2022/01/09 03:37:29;;;;;;;39.67;22.40;;;;;;;7.37;45.77;99068.53;1858751;102;25938;-84
2022/01/09 03:41:41;;;;;;;39.90;21.05;;;;;;;7.36;45.78;99068.09;1873397;102;26174;-86
2022/01/09 03:49:35;;;;;;;39.70;20.48;;;;;;;7.34;45.81;99063.30;1825822;103;25853;-88
2022/01/09 03:57:15;;;;;;;38.73;22.05;;;;;;;7.32;45.83;99063.69;1825194;105;26143;-88
2022/01/09 04:06:13;;;;;;;37.95;20.12;;;;;;;7.32;45.84;99064.98;1828798;107;25973;-88
2022/01/09 04:10:20;;;;;;;38.28;20.60;;;;;;;7.29;45.89;99068.42;1823893;106;25768;-88
2022/01/09 04:14:13;;;;;;;36.28;21.27;;;;;;;7.27;45.89;99061.47;1888972;103;25911;-84
2022/01/09 04:18:02;;;;;;;;;;;;;;;;;;;;;
2022/01/09 04:21:47;;;;;;;43.20;21.65;;;;;;;7.22;45.97;99069.58;1939374;99;25898;-87
2022/01/09 04:25:52;;;;;;;40.60;21.62;;;;;;;7.20;45.98;99067.41;1906781;101;25846;-87
2022/01/09 04:37:53;;;;;;;43.65;21.80;;;;;;;7.13;46.05;99067.73;1843301;102;25812;-86
2022/01/09 04:41:35;;;;;;;42.70;20.85;;;;;;;7.10;46.05;99064.66;1890003;101;25903;-86
2022/01/09 04:45:28;;;;;;;43.70;21.95;;;;;;;7.06;46.09;99071.94;1883051;101;26168;-86
2022/01/09 04:49:31;;;;;;;38.33;20.43;;;;;;;7.04;46.09;99063.68;1837668;105;26167;-85
2022/01/09 04:57:28;;;;;;;38.25;20.32;;;;;;;6.98;46.15;99048.90;1854568;104;26354;-86
2022/01/09 05:01:08;;;;;;;48.83;21.70;;;;;;;6.96;46.17;99047.16;1851850;105;25888;-86
2022/01/09 05:04:55;;;;;;;46.75;22.75;;;;;;;6.94;46.17;99049.70;1869045;103;25713;-88
2022/01/09 05:12:42;;;;;;;43.87;22.17;;;;;;;6.91;46.20;99044.89;1784999;108;25980;-88
2022/01/09 05:20:12;;;;;;;38.38;21.02;;;;;;;6.88;46.26;99052.18;1703863;110;25888;-88
2022/01/09 05:24:20;;;;;;;40.15;21.23;;;;;;;6.86;46.25;99041.81;1766736;108;26023;-87
2022/01/09 05:35:51;;;;;;;40.63;21.82;;;;;;;6.83;46.29;99033.11;1808176;107;26161;-87
2022/01/09 05:43:50;;;;;;;44.80;22.27;;;;;;;6.79;46.29;99036.08;1838895;105;25590;-89
2022/01/09 05:47:46;;;;;;;45.30;21.93;;;;;;;6.77;46.29;99030.42;1834984;105;26116;-89
2022/01/09 05:51:42;;;;;;;37.28;21.48;;;;;;;6.75;46.29;99030.41;1820737;105;25868;-88
2022/01/09 05:55:30;;;;;;;44.03;21.75;;;;;;;6.73;46.29;99035.97;1786881;108;26114;-88
2022/01/09 05:59:23;;;;;;;37.45;21.57;;;;;;;6.71;46.29;99028.58;1873030;102;25943;-88
2022/01/09 06:03:27;;;;;;;40.92;20.82;;;;;;;6.69;46.32;99015.18;1870874;102;25963;-88
2022/01/09 06:07:05;;;;;;;43.60;22.30;;;;;;;6.70;46.31;99022.09;1820668;105;26895;-89
2022/01/09 06:14:35;;;;;;;34.08;19.50;;;;;;;6.65;46.33;99022.03;1682213;115;25996;-88
2022/01/09 06:18:03;;;;;;;41.92;20.72;;;;;;;6.62;46.31;99024.56;1697237;115;25955;-89
2022/01/09 06:21:46;;;;;;;42.58;21.95;;;;;;;6.61;46.35;99027.97;1732142;112;25900;-87
2022/01/09 06:25:26;;;;;;;;;;;;;;;;;;;;;
2022/01/09 06:28:53;;;;;;;40.65;21.07;;;;;;;6.56;46.36;99021.86;1805829;106;25831;-90
2022/01/09 06:37:12;;;;;;;38.90;19.73;;;;;;;6.55;46.37;99026.17;1790463;107;26185;-90
2022/01/09 06:44:44;;;;;;;35.45;19.35;;;;;;;6.52;46.39;99024.81;1813149;105;25806;-87
2022/01/09 06:48:16;;;;;;;43.38;20.95;;;;;;;6.50;46.38;99030.38;1802129;108;25914;-87
2022/01/09 06:52:36;;;;;;;38.17;19.73;;;;;;;6.50;46.40;99032.97;1832516;106;25880;-86
2022/01/09 06:56:13;;;;;;;38.80;19.87;;;;;;;6.50;46.41;99035.98;1814906;106;25793;-88
2022/01/09 07:00:24;;;;;;;37.75;20.17;;;;;;;6.49;46.41;99034.25;1821515;107;26091;-87
2022/01/09 07:03:54;;;;;;;36.42;21.30;;;;;;;6.49;46.37;99032.52;1819105;107;25931;-89
2022/01/09 07:07:22;;;;;;;;;;;;;;;6.48;46.38;99033.37;1879217;103;26118;-87
2022/01/09 07:11:20;;;;;;;36.42;19.85;;;;;;;6.49;46.34;99039.42;1993869;98;25786;-86
2022/01/09 07:15:18;;;;;;;43.25;20.77;;;;;;;6.52;46.32;99048.55;1989374;97;25946;-86
2022/01/09 07:19:14;;;;;;;;;;;;;;;;;;;;;
2022/01/09 07:22:48;;;;;;;39.95;21.25;;;;;;;6.59;46.25;99050.40;1984199;98;25807;-86
2022/01/09 07:26:16;;;;;;;45.85;21.20;;;;;;;6.61;46.23;99046.09;1967635;98;25967;-88
2022/01/09 07:30:08;;;;;;;38.98;20.72;;;;;;;6.67;46.17;99053.11;1983527;98;25836;-88
2022/01/09 07:33:44;;;;;;;39.58;21.20;;;;;;;6.72;46.15;99055.37;1979427;97;25790;-87
2022/01/09 07:37:30;;;;;;;45.50;21.93;;;;;;;6.77;46.14;99053.73;1979134;97;26065;-87
2022/01/09 07:40:51;;;;;;;35.68;20.50;;;;;;;6.82;46.13;99051.67;1975643;97;26198;-88
2022/01/09 07:44:33;;;;;;;37.20;22.10;;;;;;;6.86;46.10;99052.17;2023758;93;25942;-87
2022/01/09 07:48:12;;;;;;;39.20;21.70;;;;;;;7.27;46.25;99051.97;2059776;94;25927;-87
2022/01/09 07:55:43;;;;;;;42.48;22.13;;;;;;;10.69;43.38;99054.97;1963549;98;25818;-88
2022/01/09 07:59:12;;;;;;;40.90;23.10;;;;;;;12.14;41.60;99050.05;1979895;97;26496;-86
2022/01/09 08:02:57;;;;;;;;;;;;;;;;;;;;;
2022/01/09 08:06:31;;;;;;;41.83;23.75;;;;;;;13.88;39.01;99041.80;1881224;103;25722;-86
2022/01/09 08:09:54;;;;;;;39.05;24.60;;;;;;;14.23;38.07;99040.50;1912198;101;26012;-87
2022/01/09 08:13:38;;;;;;;38.05;23.98;;;;;;;15.11;37.19;99039.23;1924237;101;25864;-88
2022/01/09 08:17:26;;;;;;;39.60;26.42;;;;;;;15.82;36.15;99051.16;1868703;104;25881;-88
2022/01/09 08:20:51;;;;;;;39.65;26.85;;;;;;;16.56;35.34;99057.55;1849752;105;26036;-86
2022/01/09 08:24:18;;;;;;;38.95;28.20;;;;;;;17.64;34.27;99057.59;1866969;103;25769;-88
2022/01/09 08:27:48;;;;;;;37.00;23.67;;;;;;;18.55;33.27;99067.81;1856621;105;26197;-87
2022/01/09 08:31:56;;;;;;;30.70;22.62;;;;;;;19.15;32.31;99055.89;1855842;103;26199;-88
2022/01/09 08:35:28;;;;;;;34.27;23.30;;;;;;;19.74;31.61;99060.52;1888097;103;25917;-89
2022/01/09 08:39:11;;;;;;;31.17;22.70;;;;;;;20.69;30.75;99067.64;1848749;103;26379;-89
2022/01/09 08:47:09;;;;;;;32.08;22.32;;;;;;;22.45;29.09;99082.41;1891089;100;25909;-83
2022/01/09 08:51:25;;;;;;;28.75;21.48;;;;;;;23.41;28.09;99075.14;1969726;96;25908;-89
2022/01/09 08:55:13;;;;;;;34.18;21.42;;;;;;;24.12;27.40;99080.41;2114228;89;25694;-86
2022/01/09 08:58:59;;;;;;;;;;;;;;;;;;;;;
2022/01/09 09:02:49;;;;;;;29.05;20.92;;;;;;;25.21;26.12;99070.47;2061737;92;25914;-91
2022/01/09 09:06:52;;;;;;;26.17;20.23;;;;;;;25.90;25.58;99081.98;2126639;90;26263;-93
2022/01/09 09:10:54;;;;;;;;;;;;;;;;;;;;;
2022/01/09 09:22:47;;;;;;;25.88;18.02;;;;;;;27.40;24.07;99090.39;1917786;100;26073;-83
2022/01/09 09:26:24;;;;;;;21.68;16.77;;;;;;;27.41;23.91;99098.82;1932466;100;32904;-89
2022/01/09 09:30:14;;;;;;;21.95;16.97;;;;;;;27.47;23.76;99097.53;1923700;100;25805;-89
2022/01/09 09:33:47;;;;;;;21.25;15.98;;;;;;;27.48;23.71;99097.45;1854374;103;25830;-90
2022/01/09 09:42:14;;;;;;;20.52;15.45;;;;;;;27.24;23.83;99101.27;1856988;103;26292;-89
2022/01/09 09:45:38;;;;;;;19.05;15.30;;;;;;;27.00;24.10;99092.99;1855519;103;26750;-88
2022/01/09 09:49:22;;;;;;;17.73;15.08;;;;;;;26.81;24.31;99098.65;2095738;86;25972;-88
2022/01/09 09:53:14;;;;;;;18.73;14.93;;;;;;;26.67;24.38;99093.81;2183899;89;25857;-86
2022/01/09 09:56:53;;;;;;;22.35;15.20;;;;;;;26.70;24.67;99089.61;2175675;90;26228;-85
2022/01/09 10:00:57;;;;;;;;;;;;;;;;;;;;;
2022/01/09 10:04:16;;;;;;;18.92;15.15;;;;;;;26.40;24.94;99088.35;2156797;90;25755;-85
2022/01/09 10:07:56;;;;;;;20.35;14.95;;;;;;;26.49;25.08;99087.30;2137694;91;25889;-89
2022/01/09 10:11:31;;;;;;;16.62;14.73;;;;;;;26.84;24.97;99086.42;2148966;91;25976;-87
2022/01/09 10:20:11;;;;;;;17.85;13.85;;;;;;;27.21;24.85;99072.52;2077758;93;26456;-87
2022/01/09 10:24:39;;;;;;;19.62;14.45;;;;;;;27.38;24.77;99070.06;2051135;93;26283;-91
2022/01/09 10:33:17;;;;;;;16.40;13.88;;;;;;;27.96;24.53;99076.36;2048640;94;25767;-94
2022/01/09 10:37:26;;;;;;;;;;;;;;;;;;;;;
2022/01/09 10:55:10;;;;;;;15.83;13.32;;;;;;;28.15;24.16;99055.86;1878113;104;25567;-93
2022/01/09 11:04:24;;;;;;;;;;;;;;;;;;;;;
2022/01/09 11:08:19;;;;;;;;;;;;;;;;;;;;;
2022/01/09 11:12:24;;;;;;;16.48;12.03;;;;;;;26.16;25.33;99023.95;1850161;105;26316;-92
2022/01/09 11:16:50;;;;;;;16.05;13.20;;;;;;;25.58;25.87;99018.95;1888249;99;25831;-92
2022/01/09 11:20:55;;;;;;;;;;;;;;;;;;;;;
2022/01/09 11:25:22;;;;;;;14.18;12.37;;;;;;;24.81;26.89;99013.22;1995567;98;25760;-92
2022/01/09 11:29:25;;;;;;;18.23;13.38;;;;;;;24.58;27.27;99011.84;1993061;94;25792;-91
2022/01/09 11:42:32;;;;;;;16.05;12.10;;;;;;;24.18;28.24;99006.00;1875636;103;26426;-85
2022/01/09 11:46:09;;;;;;;16.42;13.28;;;;;;;24.28;28.71;99007.22;1874294;102;25966;-84
2022/01/09 11:50:07;;;;;;;18.15;11.95;;;;;;;24.28;28.86;99017.40;1864197;101;26555;-83
2022/01/09 11:54:20;;;;;;;16.07;13.28;;;;;;;24.38;28.94;99007.58;1858167;102;25874;-84
2022/01/09 11:58:23;;;;;;;;;;;;;;;;;;;;;
2022/01/09 12:02:00;;;;;;;15.65;12.60;;;;;;;24.62;28.98;99011.58;1891695;99;25910;-91
2022/01/09 12:05:51;;;;;;;16.75;12.28;;;;;;;24.73;28.96;99004.30;1905513;101;25881;-84
2022/01/09 12:09:14;;;;;;;16.27;12.58;;;;;;;24.79;28.96;98997.30;1893918;101;25780;-84
2022/01/09 12:13:32;;;;;;;17.37;12.85;;;;;;;24.81;28.99;98997.23;2016233;93;25840;-83
2022/01/09 12:16:56;;;;;;;16.60;12.47;;;;;;;24.81;28.97;99011.89;2079585;93;25801;-91
2022/01/09 12:21:24;;;;;;;;;;;;;;;;;;;;;
2022/01/09 12:24:43;;;;;;;14.25;12.30;;;;;;;24.86;28.92;99015.99;2063973;93;26022;-90
2022/01/09 12:33:15;;;;;;;18.20;13.05;;;;;;;24.87;28.81;99018.17;2089775;93;26384;-84
2022/01/09 12:36:57;;;;;;;15.55;11.88;;;;;;;24.80;28.82;99018.14;1955579;98;25822;-83
2022/01/09 12:44:14;;;;;;;17.37;12.98;;;;;;;23.75;29.26;99021.11;1933404;100;26044;-83
2022/01/09 12:52:36;;;;;;;17.57;12.50;;;;;;;22.56;30.17;99021.20;1910986;101;25825;-89
2022/01/09 12:57:11;;;;;;;17.65;13.68;;;;;;;21.80;30.87;99016.27;1860201;104;26009;-83
2022/01/09 13:04:49;;;;;;;;;;;;;;;;;;;;;
2022/01/09 13:09:00;;;;;;;14.15;11.30;;;;;;;21.16;30.91;99021.60;1783039;109;26807;-78
2022/01/09 13:13:21;;;;;;;15.90;11.83;;;;;;;21.03;30.93;99021.73;1779712;109;25911;-82
2022/01/09 13:16:45;;;;;;;13.08;11.20;;;;;;;20.84;30.97;99020.28;1795387;108;25976;-79
2022/01/09 13:20:25;;;;;;;13.08;10.98;;;;;;;20.65;31.07;99028.08;1779028;109;25908;-81
2022/01/09 13:24:41;;;;;;;16.02;11.53;;;;;;;20.21;30.28;99016.91;1730346;110;25929;-81
2022/01/09 13:28:47;;;;;;;14.40;11.70;;;;;;;19.14;29.33;99021.16;1715477;113;26161;-80
2022/01/09 13:32:27;;;;;;;17.62;10.32;;;;;;;17.92;29.12;99022.59;1865075;98;25945;-80
2022/01/09 13:36:05;;;;;;;14.07;10.43;;;;;;;17.37;30.41;99023.59;1973063;99;25844;-78
2022/01/09 13:39:49;;;;;;;11.73;10.63;;;;;;;16.83;29.82;99016.62;1965738;98;26063;-80
2022/01/09 13:43:26;;;;;;;13.58;10.93;;;;;;;16.17;29.82;99022.88;1973350;98;26229;-79
2022/01/09 13:47:29;;;;;;;;;;;;;;;;;;;;;
2022/01/09 13:55:29;;;;;;;14.10;12.30;;;;;;;15.02;30.47;99014.92;2543305;76;30868;-79
2022/01/09 13:59:44;;;;;;;14.80;10.98;;;;;;;14.83;30.64;99020.45;2419835;79;25992;-80
2022/01/09 14:03:31;;;;;;;23.32;12.68;;;;;;;14.58;30.76;99030.45;2468091;79;25789;-81
2022/01/09 14:07:21;;;;;;;15.75;12.30;;;;;;;14.25;31.02;99033.49;2479211;78;25693;-80
2022/01/09 14:11:04;;;;;;;13.28;11.70;;;;;;;13.92;31.23;99033.87;2462506;78;25889;-81
2022/01/09 14:14:51;;;;;;;17.65;12.58;;;;;;;13.54;31.53;99042.16;2465800;79;25722;-79
2022/01/09 14:18:39;;;;;;;17.77;12.70;;;;;;;13.18;31.84;99036.77;2447694;79;25658;-80
2022/01/09 14:22:26;;;;;;;21.33;12.55;;;;;;;12.88;32.14;99037.88;2478967;78;26386;-82
2022/01/09 14:25:59;;;;;;;19.98;13.13;;;;;;;12.60;32.57;99038.52;2389316;81;25631;-81
2022/01/09 14:30:04;;;;;;;;;;;;;;;;;;;;;
2022/01/09 14:33:43;;;;;;;17.55;12.82;;;;;;;12.43;33.34;99036.00;2335095;82;25779;-83
2022/01/09 14:37:49;;;;;;;;;;;;;;;;;;;;;
2022/01/09 14:41:44;;;;;;;16.77;13.55;;;;;;;12.29;33.99;99047.39;2321722;83;25931;-82
2022/01/09 14:45:52;;;;;;;19.80;12.88;;;;;;;12.18;33.99;99052.21;2311878;82;25841;-86
2022/01/09 14:49:25;;;;;;;17.32;11.90;;;;;;;12.04;34.26;99056.19;2284973;85;25800;-83
2022/01/09 14:53:10;;;;;;;16.82;12.68;;;;;;;11.91;34.46;99064.49;2221898;86;25949;-83
2022/01/09 14:57:06;;;;;;;22.70;13.88;;;;;;;11.81;34.61;99071.48;2213906;86;25267;-82
2022/01/09 15:13:47;;;;;;;24.67;15.70;;;;;;;11.38;35.67;99088.07;1914167;100;25947;-85
2022/01/09 15:21:45;;;;;;;27.95;17.23;;;;;;;11.20;36.07;99104.56;1854491;104;25908;-84
2022/01/09 15:25:18;;;;;;;24.55;16.57;;;;;;;11.13;36.27;99105.44;1826434;104;26009;-84
2022/01/09 15:34:13;;;;;;;23.07;17.05;;;;;;;10.99;36.57;99110.64;1838347;104;26154;-83
2022/01/09 15:45:52;;;;;;;28.38;18.82;;;;;;;10.68;36.94;99138.38;1869880;102;25829;-85
2022/01/09 15:49:38;;;;;;;31.90;19.27;;;;;;;10.58;37.02;99136.17;1921597;98;26527;-83
2022/01/09 15:53:07;;;;;;;33.58;20.25;;;;;;;10.51;37.11;99135.72;1933230;100;26013;-87
2022/01/09 15:56:34;;;;;;;32.38;20.37;;;;;;;10.45;37.17;99145.67;1955839;99;26138;-86
2022/01/09 16:01:00;;;;;;;;;;;;;;;;;;;;;
2022/01/09 16:05:03;;;;;;;36.93;23.35;;;;;;;10.33;37.34;99146.94;1917611;100;26587;-85
2022/01/09 16:09:07;;;;;;;31.60;21.23;;;;;;;10.24;37.42;99145.11;1989309;96;25577;-83
2022/01/09 16:12:45;;;;;;;36.23;21.55;;;;;;;10.17;37.47;99145.95;2015459;95;25923;-82
2022/01/09 16:16:44;;;;;;;42.35;22.60;;;;;;;10.08;37.58;99149.36;2027937;94;25916;-83
2022/01/09 16:25:10;;;;;;;35.73;21.60;;;;;;;9.94;37.67;99150.58;2230315;84;26351;-83
2022/01/09 16:28:58;;;;;;;;;;;;;;;;;;;;;
2022/01/09 16:32:43;;;;;;;35.35;22.25;;;;;;;9.76;37.78;99150.91;2262572;85;26150;-82
2022/01/09 16:40:44;;;;;;;35.80;22.20;;;;;;;9.68;38.02;99153.42;2208606;87;25745;-82
2022/01/09 16:44:18;;;;;;;39.38;22.85;;;;;;;9.69;38.12;99157.80;2220993;85;25655;-86
2022/01/09 16:48:09;;;;;;;48.00;22.13;;;;;;;9.67;38.22;99156.47;2179892;88;25826;-83
2022/01/09 16:56:04;;;;;;;32.98;20.57;;;;;;;9.65;38.30;99169.91;2303014;83;25781;-80
2022/01/09 17:00:13;;;;;;;35.03;21.65;;;;;;;9.64;38.40;99173.78;2264318;85;25879;-84
2022/01/09 17:03:42;;;;;;;35.03;22.02;;;;;;;9.61;38.46;99177.66;2232391;86;25883;-81
2022/01/09 17:07:30;;;;;;;38.33;23.12;;;;;;;9.55;38.53;99182.41;2230389;85;25809;-84
2022/01/09 17:15:15;;;;;;;;;;;;;;;;;;;;;
2022/01/09 17:19:19;;;;;;;41.02;25.55;;;;;;;9.20;38.50;99198.54;2194227;88;25747;-82
2022/01/09 17:22:54;;;;;;;42.98;26.12;;;;;;;9.02;38.56;99191.86;2101244;91;25853;-81
2022/01/09 17:38:31;;;;;;;49.63;27.60;;;;;;;8.83;39.00;99193.80;1951717;98;25708;-82
2022/01/09 17:42:25;;;;;;;54.13;28.23;;;;;;;8.77;39.06;99206.28;1931655;100;25899;-82
2022/01/09 17:45:57;;;;;;;49.38;27.77;;;;;;;8.69;39.16;99213.12;1959297;99;26659;-84
2022/01/09 17:49:24;;;;;;;45.15;26.10;;;;;;;8.64;39.22;99217.38;1986977;98;25824;-82
2022/01/09 17:52:52;;;;;;;53.80;29.20;;;;;;;8.58;39.28;99220.80;1949525;99;26441;-82
2022/01/09 17:56:09;;;;;;;49.80;27.37;;;;;;;8.55;39.35;99222.48;1925846;100;26465;-85
2022/01/09 18:00:00;;;;;;;52.08;29.27;;;;;;;8.50;39.42;99222.00;1934960;100;25947;-82
2022/01/09 18:03:30;;;;;;;49.20;28.23;;;;;;;8.39;39.49;99230.05;1939261;100;26659;-83
2022/01/09 18:07:05;;;;;;;44.20;26.55;;;;;;;8.33;39.62;99236.84;1945248;101;25755;-82
2022/01/09 18:11:19;;;;;;;41.55;25.30;;;;;;;8.28;39.71;99241.56;1935614;101;25987;-82
2022/01/09 18:15:24;;;;;;;48.35;28.23;;;;;;;8.25;39.78;99248.43;1964414;97;25918;-82
2022/01/09 18:23:09;;;;;;;44.27;25.75;;;;;;;8.12;40.04;99264.67;2024794;96;25801;-81
2022/01/09 18:27:11;;;;;;;46.13;26.40;;;;;;;8.07;40.16;99267.64;2042727;91;25898;-81
2022/01/09 18:31:24;;;;;;;45.80;27.32;;;;;;;8.02;40.26;99272.73;2122188;89;25976;-81
2022/01/09 18:35:24;;;;;;;;;;;;;;;;;;;;;
2022/01/09 18:48:16;;;;;;;41.68;25.45;;;;;;;7.86;40.65;99287.59;2086494;90;25950;-83
2022/01/09 18:52:02;;;;;;;40.78;25.08;;;;;;;7.84;40.74;99290.61;2241710;85;26121;-83
2022/01/09 18:56:09;;;;;;;42.00;24.65;;;;;;;7.81;40.79;99306.56;2269080;84;25774;-82
2022/01/09 18:59:40;;;;;;;43.55;24.70;;;;;;;7.76;40.85;99301.73;2224109;86;26769;-81
2022/01/09 19:03:35;;;;;;;48.23;26.68;;;;;;;7.70;40.94;99304.22;2240658;85;26121;-82
2022/01/09 19:07:07;;;;;;;44.23;25.27;;;;;;;7.65;41.06;99305.84;2279771;84;25841;-82
2022/01/09 19:10:43;;;;;;;;;;;;;;;;;;;;;
2022/01/09 19:14:14;;;;;;;40.55;23.75;;;;;;;7.61;41.16;99318.73;2278141;85;25727;-81
2022/01/09 19:22:44;;;;;;;44.93;24.10;;;;;;;7.54;41.30;99313.42;2205669;88;26141;-83
2022/01/09 19:26:21;;;;;;;42.95;24.15;;;;;;;7.50;41.42;99318.55;2247892;85;25226;-87
2022/01/09 19:30:04;;;;;;;;;;;;;;;;;;;;;
2022/01/09 19:34:28;;;;;;;;;;;;;;;;;;;;;
2022/01/09 19:37:57;;;;;;;42.50;24.77;;;;;;;7.28;41.75;99321.13;2160770;89;26023;-85
2022/01/09 19:42:29;;;;;;;;;;;;;;;;;;;;;
2022/01/09 19:46:36;;;;;;;;;;;;;;;;;;;;;
2022/01/09 19:50:22;;;;;;;49.60;25.50;;;;;;;7.10;42.14;99338.06;2053399;91;25760;-88
2022/01/09 19:58:24;;;;;;;;;;;;;;;;;;;;;
2022/01/09 20:01:50;;;;;;;39.38;24.57;;;;;;;6.97;42.41;99358.50;2043941;95;26049;-79
2022/01/09 20:05:40;;;;;;;42.23;24.40;;;;;;;6.95;42.52;99362.38;2022259;96;26192;-79
2022/01/09 20:09:18;;;;;;;36.90;23.55;;;;;;;7.05;42.53;99359.53;2033879;95;25820;-79
2022/01/09 20:13:06;;;;;;;;;;;;;;;;;;;;;
2022/01/09 20:16:54;;;;;;;38.55;23.92;;;;;;;7.13;42.48;99373.97;2042284;95;25770;-79
2022/01/09 20:20:33;;;;;;;40.58;22.65;;;;;;;7.03;42.56;99375.06;2062357;94;25760;-80
2022/01/09 20:24:31;;;;;;;;;;;;;;;;;;;;;
2022/01/09 20:28:11;;;;;;;;;;;;;;;;;;;;;
2022/01/09 20:32:25;;;;;;;43.70;23.15;;;;;;;6.90;42.67;99391.17;2053806;94;25954;-83
2022/01/09 20:36:13;;;;;;;34.55;21.95;;;;;;;6.85;42.73;99392.38;2055548;94;26003;-85
2022/01/09 20:40:27;;;;;;;35.73;20.40;;;;;;;6.77;42.85;99397.79;2043794;94;25759;-84
2022/01/09 20:44:32;;;;;;;40.35;21.33;;;;;;;6.71;42.98;99403.25;2053189;93;26331;-89
2022/01/09 20:49:02;;;;;;;;;;;;;;;;;;;;;
2022/01/09 20:53:11;;;;;;;34.53;20.72;;;;;;;6.61;43.16;99408.23;2003449;95;25741;-84
2022/01/09 21:01:59;;;;;;;32.80;21.42;;;;;;;6.45;43.38;99416.47;1979712;96;25824;-84
2022/01/09 21:05:36;;;;;;;34.78;19.42;;;;;;;6.35;43.54;99433.48;1943300;98;25848;-82
2022/01/09 21:09:33;;;;;;;33.25;18.80;;;;;;;6.28;43.65;99422.52;1939301;100;25917;-88
2022/01/09 21:18:18;;;;;;;33.25;19.82;;;;;;;6.15;43.90;99432.97;1906312;101;25975;-84
2022/01/09 21:22:20;;;;;;;;;;;;;;;;;;;;;
2022/01/09 21:26:43;;;;;;;32.88;20.10;;;;;;;6.08;44.11;99444.42;1911552;98;25846;-83
2022/01/09 21:30:20;;;;;;;28.80;17.50;;;;;;;6.10;44.22;99453.08;2001179;95;26003;-78
2022/01/09 21:46:25;;;;;;;33.13;16.97;;;;;;;6.42;44.17;99460.40;1971802;98;26111;-83
2022/01/09 21:50:22;;;;;;;;;;;;;;;;;;;;;
2022/01/09 21:54:33;;;;;;;28.75;18.02;;;;;;;6.54;44.10;99465.86;1938446;100;26278;-83
2022/01/09 21:58:28;;;;;;;;;;;;;;;;;;;;;
2022/01/09 22:14:40;;;;;;;24.60;16.97;;;;;;;6.67;44.03;99490.36;1815426;106;25490;-80
2022/01/09 22:18:06;;;;;;;23.27;15.30;;;;;;;6.70;44.02;99501.22;1835177;105;26066;-79
2022/01/09 22:22:10;;;;;;;26.85;15.95;;;;;;;6.71;44.03;99501.25;1851117;103;26553;-80
2022/01/09 22:25:50;;;;;;;30.90;15.95;;;;;;;6.73;44.06;99506.48;1832267;104;25815;-80
2022/01/09 22:29:58;;;;;;;29.75;17.02;;;;;;;6.74;44.03;99504.34;1868802;104;26258;-82
2022/01/09 22:33:22;;;;;;;27.52;15.68;;;;;;;6.76;44.04;99509.16;1864591;104;27604;-81
2022/01/09 22:37:00;;;;;;;27.93;15.80;;;;;;;6.78;44.03;99512.24;1880124;102;25899;-82
2022/01/09 22:40:32;;;;;;;26.62;16.05;;;;;;;6.79;44.04;99513.98;2055036;90;26019;-80
2022/01/09 22:44:32;;;;;;;25.43;15.35;;;;;;;6.80;44.05;99522.63;2144439;90;25684;-80
2022/01/09 22:48:08;;;;;;;26.73;15.70;;;;;;;6.82;44.06;99524.84;2136073;91;25305;-80
2022/01/09 22:51:33;;;;;;;21.10;13.85;;;;;;;6.82;44.07;99525.72;2101861;92;25805;-79
2022/01/09 22:55:05;;;;;;;27.07;16.30;;;;;;;6.83;44.07;99528.77;2089558;93;25834;-79
2022/01/09 22:58:52;;;;;;;29.32;16.25;;;;;;;6.84;44.07;99528.34;2108603;91;25855;-81
2022/01/09 23:03:26;;;;;;;;;;;;;;;;;;;;;
2022/01/09 23:06:54;;;;;;;24.43;15.23;;;;;;;6.84;44.10;99538.70;2075698;92;25834;-81
2022/01/09 23:10:33;;;;;;;22.82;14.65;;;;;;;6.85;44.11;99543.03;2087306;93;26090;-81
2022/01/09 23:18:25;;;;;;;25.27;15.10;;;;;;;6.85;44.13;99563.37;1927112;100;26329;-82
2022/01/09 23:21:52;;;;;;;25.00;15.08;;;;;;;6.87;44.13;99569.86;1927227;101;26440;-81
2022/01/09 23:25:36;;;;;;;23.92;14.73;;;;;;;6.88;44.12;99578.09;1925098;101;25759;-81
2022/01/09 23:29:14;;;;;;;26.93;15.48;;;;;;;6.88;44.10;99587.16;1953228;98;25837;-82
2022/01/09 23:33:29;;;;;;;25.10;14.55;;;;;;;6.89;44.13;99591.52;2023483;94;25776;-81
2022/01/09 23:45:21;;;;;;;22.35;14.40;;;;;;;6.90;44.13;99608.81;1913142;100;25838;-82
2022/01/09 23:53:10;;;;;;;23.10;13.55;;;;;;;6.90;44.11;99620.89;1927810;99;26342;-80
2022/01/09 23:56:40;;;;;;;24.37;14.78;;;;;;;6.89;44.10;99617.86;1986508;98;25858;-81
